Ron Hunter — WDH4137 — position and weather

sailwx.info

Track history (hours):
 
Tides and Currents Weather Stations Pressure Air Temp Water Temp Dewpoint Dewpoint Depression Visibility Wind Speed Wind Dir Waves Ship Positions

Ron Hunter

Owner: HF Marine, LLC, Nashville, TN. More information available from US FCC via Universal Licensing System and Coast Guard Vessel Documentation Center.

Last reported at 2018-Jun-22 02:28 UTC. Time now 2018-Jun-25 14:15 UTC.
Position N 32°40' W 091°08'.

Length 48 m; draft 3 m.

Type: Towing. MMSI: 367614550.

Date/timePositionNaut miles runAvg speedWind from/ knotsBaromVisibWave heightAir tempDewpointWater temp
2018-Jun-22 02:28N 32°40' W 091°08'2 3.2
2018-Jun-22 01:45N 32°38' W 091°09'1 4.6
2018-Jun-22 01:30N 32°37' W 091°09'2 4.2
2018-Jun-22 00:59N 32°35' W 091°07'2 4.2
2018-Jun-22 00:30N 32°33' W 091°06'2 4.0
2018-Jun-22 00:00N 32°32' W 091°06'2 4.1
2018-Jun-21 23:30N 32°30' W 091°07'2 4.3
2018-Jun-21 23:00N 32°28' W 091°06'1 2.7
2018-Jun-21 22:30N 32°27' W 091°05'2 4.3
2018-Jun-21 22:00N 32°26' W 091°02'2 4.2
2018-Jun-21 21:30N 32°25' W 090°60'2 3.4
2018-Jun-21 21:01N 32°23' W 090°60'2 3.1
2018-Jun-21 20:30N 32°22' W 091°00'2 3.6
2018-Jun-21 20:00N 32°21' W 090°58'2 4.2
2018-Jun-21 19:30N 32°21' W 090°56'2 4.0
2018-Jun-21 19:00N 32°19' W 090°54'2 3.7
2018-Jun-21 18:30N 32°18' W 090°55'1 1.7
2018-Jun-21 18:00N 32°17' W 090°56'2 3.8
2018-Jun-21 17:30N 32°16' W 090°58'2 3.6
2018-Jun-21 17:00N 32°14' W 090°59'2 4.6
2018-Jun-21 16:30N 32°12' W 090°59'2 4.1
2018-Jun-21 16:00N 32°10' W 090°60'2 4.2
2018-Jun-21 15:30N 32°08' W 091°00'2 3.7
2018-Jun-21 15:00N 32°07' W 091°02'3 3.8
2018-Jun-21 14:17N 32°08' W 091°05'1 4.1
2018-Jun-21 14:00N 32°07' W 091°06'5 4.1
2018-Jun-21 12:46N 32°03' W 091°03'1 3.0
2018-Jun-21 12:18N 32°02' W 091°04'1 2.2
2018-Jun-21 11:59N 32°01' W 091°05'  
2018-Jun-17 08:03N 31°60' W 091°05'0 7.5
2018-Jun-17 08:00N 32°00' W 091°05'6 6.4
2018-Jun-17 07:03N 32°06' W 091°06'1 8.1
2018-Jun-17 06:55N 32°07' W 091°07'1 2.2
2018-Jun-17 06:29N 32°08' W 091°06'2 4.3
2018-Jun-17 06:00N 32°08' W 091°03'3 5.7
2018-Jun-17 05:31N 32°09' W 091°00'3 6.6
2018-Jun-17 05:00N 32°12' W 090°60'4 7.6
2018-Jun-17 04:30N 32°15' W 090°58'3 6.5
2018-Jun-17 04:00N 32°18' W 090°56'3 5.9
2018-Jun-17 03:31N 32°21' W 090°55'4 8.0
2018-Jun-17 03:00N 32°21' W 090°59'4 7.3
2018-Jun-17 02:31N 32°25' W 090°60'4 8.4
2018-Jun-17 02:00N 32°27' W 091°04'4 8.3
2018-Jun-17 01:30N 32°30' W 091°07'4 8.5
2018-Jun-17 01:01N 32°34' W 091°07'  
Track history (hours):
 
Tides and Currents Weather Stations Pressure Air Temp Water Temp Dewpoint Dewpoint Depression Visibility Wind Speed Wind Dir Waves Ship Positions

Ron Hunter

Owner: HF Marine, LLC, Nashville, TN. More information available from US FCC via Universal Licensing System and Coast Guard Vessel Documentation Center.

Last reported at 2018-Jun-22 02:28 UTC. Time now 2018-Jun-25 14:15 UTC.
Position N 32°40' W 091°08'.

Length 48 m; draft 3 m.

Type: Towing. MMSI: 367614550.

Date/timePositionNaut miles runAvg speedWind from/ knotsBaromVisibWave heightAir tempDewpointWater temp
2018-Jun-22 02:28N 32°40' W 091°08'2 3.2
2018-Jun-22 01:45N 32°38' W 091°09'1 4.6
2018-Jun-22 01:30N 32°37' W 091°09'2 4.2
2018-Jun-22 00:59N 32°35' W 091°07'2 4.2
2018-Jun-22 00:30N 32°33' W 091°06'2 4.0
2018-Jun-22 00:00N 32°32' W 091°06'2 4.1
2018-Jun-21 23:30N 32°30' W 091°07'2 4.3
2018-Jun-21 23:00N 32°28' W 091°06'1 2.7
2018-Jun-21 22:30N 32°27' W 091°05'2 4.3
2018-Jun-21 22:00N 32°26' W 091°02'2 4.2
2018-Jun-21 21:30N 32°25' W 090°60'2 3.4
2018-Jun-21 21:01N 32°23' W 090°60'2 3.1
2018-Jun-21 20:30N 32°22' W 091°00'2 3.6
2018-Jun-21 20:00N 32°21' W 090°58'2 4.2
2018-Jun-21 19:30N 32°21' W 090°56'2 4.0
2018-Jun-21 19:00N 32°19' W 090°54'2 3.7
2018-Jun-21 18:30N 32°18' W 090°55'1 1.7
2018-Jun-21 18:00N 32°17' W 090°56'2 3.8
2018-Jun-21 17:30N 32°16' W 090°58'2 3.6
2018-Jun-21 17:00N 32°14' W 090°59'2 4.6
2018-Jun-21 16:30N 32°12' W 090°59'2 4.1
2018-Jun-21 16:00N 32°10' W 090°60'2 4.2
2018-Jun-21 15:30N 32°08' W 091°00'2 3.7
2018-Jun-21 15:00N 32°07' W 091°02'3 3.8
2018-Jun-21 14:17N 32°08' W 091°05'1 4.1
2018-Jun-21 14:00N 32°07' W 091°06'5 4.1
2018-Jun-21 12:46N 32°03' W 091°03'1 3.0
2018-Jun-21 12:18N 32°02' W 091°04'1 2.2
2018-Jun-21 11:59N 32°01' W 091°05'  
2018-Jun-17 08:03N 31°60' W 091°05'0 7.5
2018-Jun-17 08:00N 32°00' W 091°05'6 6.4
2018-Jun-17 07:03N 32°06' W 091°06'1 8.1
2018-Jun-17 06:55N 32°07' W 091°07'1 2.2
2018-Jun-17 06:29N 32°08' W 091°06'2 4.3
2018-Jun-17 06:00N 32°08' W 091°03'3 5.7
2018-Jun-17 05:31N 32°09' W 091°00'3 6.6
2018-Jun-17 05:00N 32°12' W 090°60'4 7.6
2018-Jun-17 04:30N 32°15' W 090°58'3 6.5
2018-Jun-17 04:00N 32°18' W 090°56'3 5.9
2018-Jun-17 03:31N 32°21' W 090°55'4 8.0
2018-Jun-17 03:00N 32°21' W 090°59'4 7.3
2018-Jun-17 02:31N 32°25' W 090°60'4 8.4
2018-Jun-17 02:00N 32°27' W 091°04'4 8.3
2018-Jun-17 01:30N 32°30' W 091°07'4 8.5
2018-Jun-17 01:01N 32°34' W 091°07'  

Dump ship's entire track history